Time;durP1;ratioP1;P1;durP2;ratioP2;P2;SDS_P1;SDS_P2;PMS_P1;PMS_P2;Temp;Humidity;BMP_temperature;BMP_pressure;BME280_temperature;BME280_humidity;BME280_pressure;Samples;Min_cycle;Max_cycle;Signal;HPM_P1;HPM_P2
2020/12/09 00:00:34;;;;;;;61.17;31.98;;;5.00;99.90;;;;;;5134848;27;20492;-67
2020/12/09 00:03:00;;;;;;;58.25;32.83;;;5.10;99.90;;;;;;5134555;27;20034;-67
2020/12/09 00:08:47;;;;;;;63.15;32.25;;;5.10;99.90;;;;;;5137012;27;20094;-67
2020/12/09 00:11:13;;;;;;;61.08;32.90;;;5.20;99.90;;;;;;5134566;27;20065;-67
2020/12/09 00:13:39;;;;;;;59.70;32.55;;;5.20;99.90;;;;;;5134566;27;20541;-67
2020/12/09 00:16:05;;;;;;;55.95;30.50;;;5.20;99.90;;;;;;5134792;27;20073;-67
2020/12/09 00:18:31;;;;;;;48.35;28.00;;;5.10;99.90;;;;;;5134578;27;20161;-67
2020/12/09 00:24:18;;;;;;;40.70;24.63;;;5.00;99.90;;;;;;5134611;27;20073;-66
2020/12/09 00:26:43;;;;;;;41.60;24.80;;;5.00;99.90;;;;;;5134071;27;20019;-65
2020/12/09 00:29:09;;;;;;;40.67;24.65;;;5.00;99.90;;;;;;5134153;27;20077;-67
2020/12/09 00:31:35;;;;;;;40.97;23.48;;;5.10;99.90;;;;;;5134147;27;20019;-65
2020/12/09 00:34:03;;;;;;;43.40;24.30;;;5.00;99.90;;;;;;5136208;27;20028;-67
2020/12/09 00:36:29;;;;;;;39.15;23.05;;;5.00;99.90;;;;;;5136535;27;20035;-67
2020/12/09 00:38:55;;;;;;;38.97;23.05;;;5.00;99.90;;;;;;5134348;27;20076;-66
2020/12/09 00:41:24;;;;;;;37.55;22.73;;;5.00;99.90;;;;;;5133929;27;20428;-65
2020/12/09 00:43:50;;;;;;;38.20;22.95;;;5.00;99.90;;;;;;5133899;27;20118;-67
2020/12/09 00:46:20;;;;;;;31.50;20.48;;;5.00;99.90;;;;;;5133868;27;20029;-66
2020/12/09 00:48:46;;;;;;;31.83;19.58;;;5.00;99.90;;;;;;5134080;27;20023;-68
2020/12/09 00:54:34;;;;;;;31.23;19.27;;;5.00;99.90;;;;;;5133825;27;20429;-63
2020/12/09 00:56:59;;;;;;;29.98;19.33;;;5.10;99.90;;;;;;5134080;27;20023;-64
2020/12/09 00:59:25;;;;;;;29.30;19.10;;;5.20;99.90;;;;;;5134015;27;20026;-65
2020/12/09 01:01:50;;;;;;;29.30;19.10;;;5.10;99.90;;;;;;5133829;27;20374;-65
2020/12/09 01:04:16;;;;;;;26.13;17.67;;;5.10;99.90;;;;;;5133847;27;20031;-65
2020/12/09 01:06:42;;;;;;;27.23;18.73;;;5.20;99.90;;;;;;5133970;27;20092;-66
2020/12/09 01:09:07;;;;;;;27.50;18.17;;;5.10;99.90;;;;;;5133404;27;20495;-64
2020/12/09 01:11:33;;;;;;;27.83;18.05;;;5.10;99.90;;;;;;5133841;27;20023;-66
2020/12/09 01:13:59;;;;;;;27.88;18.65;;;5.20;99.90;;;;;;5133729;27;20026;-66
2020/12/09 01:16:25;;;;;;;27.45;17.65;;;5.10;99.90;;;;;;5133728;27;20068;-66
2020/12/09 01:18:50;;;;;;;26.90;18.42;;;5.20;99.90;;;;;;5133487;27;20417;-65
2020/12/09 01:24:38;;;;;;;27.80;18.25;;;5.30;99.90;;;;;;5133741;27;20053;-66
2020/12/09 01:27:03;;;;;;;28.83;19.35;;;5.30;99.90;;;;;;5133465;27;20024;-66
2020/12/09 01:29:29;;;;;;;28.63;19.05;;;5.30;99.90;;;;;;5133610;27;20436;-66
2020/12/09 01:32:02;;;;;;;30.63;19.88;;;5.30;99.90;;;;;;5133339;27;20413;-66
2020/12/09 01:34:29;;;;;;;29.70;19.23;;;5.30;99.90;;;;;;5133180;28;20088;-66
2020/12/09 01:36:58;;;;;;;28.75;19.05;;;5.30;99.90;;;;;;5133600;28;20077;-66
2020/12/09 01:39:23;;;;;;;31.10;18.98;;;5.40;99.90;;;;;;5133524;28;20038;-65
2020/12/09 01:41:49;;;;;;;26.33;17.05;;;5.40;99.90;;;;;;5133164;28;20027;-67
2020/12/09 01:44:15;;;;;;;26.48;17.75;;;5.50;99.90;;;;;;5133447;28;20106;-65
2020/12/09 01:46:42;;;;;;;26.85;18.30;;;5.60;99.90;;;;;;5133106;28;20027;-64
2020/12/09 01:49:08;;;;;;;29.23;18.50;;;5.60;99.90;;;;;;5133178;28;20045;-64
2020/12/09 01:54:56;;;;;;;31.92;19.85;;;5.60;99.90;;;;;;5135512;27;20042;-65
2020/12/09 01:57:22;;;;;;;30.40;20.33;;;5.60;99.90;;;;;;5137465;27;20023;-66
2020/12/09 01:59:48;;;;;;;29.80;20.63;;;5.60;99.90;;;;;;5137151;27;20033;-66
2020/12/09 02:02:14;;;;;;;28.70;19.33;;;5.50;99.90;;;;;;5136996;27;20027;-68
2020/12/09 02:04:41;;;;;;;27.63;18.55;;;5.50;99.90;;;;;;5136948;27;20024;-67
2020/12/09 02:07:07;;;;;;;26.67;18.60;;;5.60;99.90;;;;;;5137300;27;20027;-67
2020/12/09 02:09:33;;;;;;;26.40;17.77;;;5.60;99.90;;;;;;5136887;27;20138;-68
2020/12/09 02:11:59;;;;;;;27.88;18.88;;;5.70;99.90;;;;;;5136974;27;20489;-67
2020/12/09 02:14:26;;;;;;;24.02;16.63;;;5.70;99.90;;;;;;5137086;27;20027;-65
2020/12/09 02:16:54;;;;;;;24.65;16.85;;;5.80;99.90;;;;;;5137128;27;20019;-65
2020/12/09 02:19:21;;;;;;;26.70;17.23;;;5.80;99.90;;;;;;5137105;27;20084;-66
2020/12/09 02:25:08;;;;;;;26.73;18.13;;;5.80;99.90;;;;;;5136714;27;20118;-65
2020/12/09 02:27:34;;;;;;;30.13;19.60;;;5.80;99.90;;;;;;5137000;27;20054;-67
2020/12/09 02:29:59;;;;;;;26.27;16.85;;;5.80;99.90;;;;;;5136689;27;20046;-66
2020/12/09 02:32:25;;;;;;;29.83;17.63;;;5.90;99.90;;;;;;5136510;27;20063;-67
2020/12/09 02:34:51;;;;;;;31.70;18.45;;;5.90;99.90;;;;;;5136403;27;20098;-66
2020/12/09 02:37:16;;;;;;;32.08;19.23;;;6.00;99.90;;;;;;5136797;27;20102;-66
2020/12/09 02:39:42;;;;;;;31.27;19.45;;;5.90;99.90;;;;;;5136703;27;20108;-66
2020/12/09 02:42:07;;;;;;;31.02;18.70;;;6.00;99.90;;;;;;5136563;27;20050;-68
2020/12/09 02:44:33;;;;;;;29.75;18.90;;;6.00;99.90;;;;;;5136326;27;20501;-66
2020/12/09 02:46:59;;;;;;;32.65;20.63;;;6.00;99.90;;;;;;5136278;27;20140;-67
2020/12/09 02:49:25;;;;;;;32.90;21.17;;;6.00;99.90;;;;;;5136577;27;20030;-66
2020/12/09 02:55:12;;;;;;;34.53;20.90;;;6.00;99.90;;;;;;5136409;27;20493;-67
2020/12/09 02:57:38;;;;;;;31.80;20.58;;;6.00;99.90;;;;;;5136020;27;20027;-69
2020/12/09 03:00:05;;;;;;;36.60;22.55;;;6.00;99.90;;;;;;5136083;27;20026;-68
2020/12/09 03:02:30;;;;;;;37.92;22.52;;;6.10;99.90;;;;;;5136124;27;20055;-67
2020/12/09 03:04:56;;;;;;;32.58;20.15;;;6.10;99.90;;;;;;5135812;27;20081;-67
2020/12/09 03:10:43;;;;;;;33.47;20.40;;;6.10;99.90;;;;;;5144099;27;20050;-68
2020/12/09 03:13:09;;;;;;;33.75;20.75;;;6.20;99.90;;;;;;5135710;27;20023;-66
2020/12/09 03:15:35;;;;;;;35.72;20.63;;;6.20;99.90;;;;;;5136014;27;20062;-67
2020/12/09 03:18:00;;;;;;;36.63;21.17;;;6.20;99.90;;;;;;5135887;27;20055;-65
2020/12/09 03:20:26;;;;;;;34.17;21.08;;;6.30;99.90;;;;;;5135537;27;20035;-67
2020/12/09 03:22:53;;;;;;;33.85;20.55;;;6.30;99.90;;;;;;5135686;27;20046;-68
2020/12/09 03:25:18;;;;;;;35.28;21.60;;;6.30;99.90;;;;;;5135794;27;20035;-66
2020/12/09 03:27:44;;;;;;;35.28;21.38;;;6.30;99.90;;;;;;5135552;27;20375;-67
2020/12/09 03:30:09;;;;;;;33.25;21.00;;;6.30;99.90;;;;;;5135452;27;20031;-68
2020/12/09 03:32:36;;;;;;;32.47;19.52;;;6.30;99.90;;;;;;5135554;27;20057;-66
2020/12/09 03:35:02;;;;;;;33.45;20.35;;;6.40;99.90;;;;;;5135516;27;20127;-67
2020/12/09 03:40:50;;;;;;;28.83;16.50;;;6.40;99.90;;;;;;5135627;27;20034;-66
2020/12/09 03:43:17;;;;;;;30.52;18.27;;;6.50;99.90;;;;;;5135370;27;20031;-68
2020/12/09 03:45:42;;;;;;;32.75;19.23;;;6.50;99.90;;;;;;5135399;27;20091;-69
2020/12/09 03:48:09;;;;;;;33.45;19.88;;;6.50;99.90;;;;;;5135338;27;20458;-68
2020/12/09 03:50:34;;;;;;;34.20;19.77;;;6.50;99.90;;;;;;5135222;27;20110;-68
2020/12/09 03:53:00;;;;;;;37.00;20.80;;;6.50;99.90;;;;;;5135322;27;20054;-68
2020/12/09 03:55:26;;;;;;;37.38;20.98;;;6.50;99.90;;;;;;5134982;27;20240;-69
2020/12/09 03:57:52;;;;;;;32.00;19.15;;;6.50;99.90;;;;;;5135183;27;20043;-71
2020/12/09 04:00:17;;;;;;;34.38;20.00;;;6.50;99.90;;;;;;5135097;27;20023;-68
2020/12/09 04:02:43;;;;;;;34.97;19.52;;;6.50;99.90;;;;;;5134887;27;20033;-69
2020/12/09 04:05:09;;;;;;;31.63;18.75;;;6.50;99.90;;;;;;5135127;27;20030;-69
2020/12/09 04:10:56;;;;;;;38.47;21.17;;;6.60;99.90;;;;;;5136010;27;20046;-69
2020/12/09 04:13:22;;;;;;;36.88;20.70;;;6.60;99.90;;;;;;5134905;27;20023;-65
2020/12/09 04:15:47;;;;;;;32.72;18.58;;;6.60;99.90;;;;;;5134824;27;20023;-68
2020/12/09 04:18:13;;;;;;;33.95;19.15;;;6.70;99.90;;;;;;5133995;27;20083;-68
2020/12/09 04:20:39;;;;;;;35.55;20.55;;;6.70;99.90;;;;;;5134710;27;20023;-68
2020/12/09 04:26:26;;;;;;;34.65;18.52;;;6.70;99.90;;;;;;5134696;27;20066;-67
2020/12/09 04:28:52;;;;;;;34.05;18.08;;;6.70;99.90;;;;;;5134670;27;20474;-68
2020/12/09 04:31:17;;;;;;;33.90;19.25;;;6.70;99.90;;;;;;5134220;27;20466;-68
2020/12/09 04:34:00;;;;;;;37.58;21.10;;;6.70;99.90;;;;;;5134200;27;20031;-73
2020/12/09 04:36:26;;;;;;;40.00;21.92;;;6.70;99.90;;;;;;5134327;27;20098;-67
2020/12/09 04:38:52;;;;;;;41.90;22.58;;;6.70;99.90;;;;;;5134158;27;20023;-66
2020/12/09 04:41:18;;;;;;;41.22;22.70;;;6.70;99.90;;;;;;5134252;27;20082;-68
2020/12/09 04:43:43;;;;;;;37.15;20.30;;;6.70;99.90;;;;;;5133963;27;20031;-66
2020/12/09 04:46:10;;;;;;;29.95;16.70;;;6.80;99.90;;;;;;5133914;27;20030;-68
2020/12/09 04:48:59;;;;;;;36.55;18.50;;;6.90;99.90;;;;;;5133909;27;20015;-68
2020/12/09 04:51:58;;;;;;;40.22;21.73;;;6.90;99.90;;;;;;5133897;27;20386;-67
2020/12/09 04:54:35;;;;;;;44.83;22.98;;;6.80;99.90;;;;;;5030595;28;20112;-67
2020/12/09 04:57:09;;;;;;;49.08;25.30;;;6.80;99.90;;;;;;5030641;28;20025;-66
2020/12/09 04:59:39;;;;;;;51.42;25.23;;;6.80;99.90;;;;;;5030555;28;20033;-67
2020/12/09 05:02:08;;;;;;;45.63;24.10;;;6.80;99.90;;;;;;5030516;28;20030;-65
2020/12/09 05:04:34;;;;;;;45.40;24.67;;;6.90;99.90;;;;;;5030441;28;20041;-65
2020/12/09 05:07:05;;;;;;;49.10;23.95;;;6.80;99.90;;;;;;5030407;28;20025;-68
2020/12/09 05:09:37;;;;;;;50.88;25.52;;;6.80;99.90;;;;;;5030448;28;20044;-67
2020/12/09 05:12:06;;;;;;;45.67;23.70;;;6.90;99.90;;;;;;5050037;28;20115;-68
2020/12/09 05:14:35;;;;;;;45.22;23.60;;;6.90;99.90;;;;;;5050315;28;20051;-69
2020/12/09 05:17:04;;;;;;;48.90;25.67;;;6.90;99.90;;;;;;5050300;28;20498;-67
2020/12/09 05:19:30;;;;;;;49.30;24.98;;;6.90;99.90;;;;;;5050285;28;20037;-68
2020/12/09 05:21:59;;;;;;;45.10;25.23;;;6.90;99.90;;;;;;5050095;28;20623;-67
2020/12/09 05:24:25;;;;;;;48.28;24.90;;;6.90;99.90;;;;;;5050156;28;20040;-66
2020/12/09 05:26:50;;;;;;;46.80;24.80;;;6.90;99.90;;;;;;5050073;28;20108;-68
2020/12/09 05:29:18;;;;;;;46.30;24.80;;;6.90;99.90;;;;;;5050213;28;20029;-68
2020/12/09 05:31:47;;;;;;;44.47;24.50;;;6.90;99.90;;;;;;5125613;27;20035;-66
2020/12/09 05:34:26;;;;;;;45.95;24.67;;;7.00;99.90;;;;;;5154289;27;20071;-67
2020/12/09 05:36:54;;;;;;;44.45;23.98;;;6.90;99.90;;;;;;5153898;27;20478;-68
2020/12/09 05:39:20;;;;;;;47.47;24.88;;;7.00;99.90;;;;;;5154213;27;20120;-69
2020/12/09 05:41:46;;;;;;;52.08;26.17;;;7.00;99.90;;;;;;5154242;27;20048;-72
2020/12/09 05:44:12;;;;;;;49.97;24.85;;;6.90;99.90;;;;;;5154163;27;20534;-68
2020/12/09 05:46:56;;;;;;;47.67;24.05;;;6.90;99.90;;;;;;5154283;27;20374;-72
2020/12/09 05:49:23;;;;;;;42.03;21.55;;;6.90;99.90;;;;;;5154021;27;20087;-67
2020/12/09 05:52:15;;;;;;;46.17;21.88;;;6.90;99.90;;;;;;5154076;27;20030;-67
2020/12/09 05:54:44;;;;;;;42.05;20.25;;;6.90;99.90;;;;;;5154014;27;20026;-67
2020/12/09 05:57:13;;;;;;;38.03;19.05;;;6.80;99.90;;;;;;5153811;27;20023;-67
2020/12/09 05:59:48;;;;;;;41.05;20.08;;;6.90;99.90;;;;;;5154073;27;20026;-70
2020/12/09 06:02:27;;;;;;;47.78;22.80;;;6.90;99.90;;;;;;5153782;27;20430;-64
2020/12/09 06:05:00;;;;;;;46.10;22.77;;;6.80;99.90;;;;;;5153698;27;20030;-66
2020/12/09 06:07:28;;;;;;;49.67;22.25;;;6.90;99.90;;;;;;5153829;27;20030;-65
2020/12/09 06:10:04;;;;;;;49.92;23.52;;;6.90;99.90;;;;;;5153448;27;20363;-72
2020/12/09 06:12:47;;;;;;;48.55;23.55;;;6.80;99.90;;;;;;5153642;27;20484;-68
2020/12/09 06:15:14;;;;;;;46.88;23.13;;;6.90;99.90;;;;;;5153965;27;20019;-67
2020/12/09 06:17:40;;;;;;;50.42;24.45;;;6.80;99.90;;;;;;5153626;27;20535;-69
2020/12/09 06:20:05;;;;;;;48.65;23.60;;;6.90;99.90;;;;;;5153977;27;20034;-66
2020/12/09 06:22:32;;;;;;;49.58;22.40;;;6.90;99.90;;;;;;5153790;27;20364;-69
2020/12/09 06:25:04;;;;;;;46.30;21.80;;;6.80;99.90;;;;;;5153505;27;20019;-69
2020/12/09 06:27:36;;;;;;;46.88;22.02;;;6.80;99.90;;;;;;5153497;27;20386;-69
2020/12/09 06:30:10;;;;;;;46.53;22.73;;;6.80;99.90;;;;;;5153792;27;20023;-67
2020/12/09 06:32:46;;;;;;;47.20;23.30;;;6.80;99.90;;;;;;5153446;27;20098;-67
2020/12/09 06:35:12;;;;;;;54.58;25.90;;;6.90;99.90;;;;;;5153406;27;20362;-67
2020/12/09 06:37:38;;;;;;;48.55;23.58;;;6.90;99.90;;;;;;5153290;27;20022;-73
2020/12/09 06:40:14;;;;;;;47.58;22.50;;;6.90;99.90;;;;;;5153855;27;20026;-68
2020/12/09 06:42:40;;;;;;;45.75;21.67;;;6.90;99.90;;;;;;5156943;27;20054;-69
2020/12/09 06:45:06;;;;;;;44.72;22.23;;;6.80;99.90;;;;;;5157093;27;20386;-68
2020/12/09 06:47:32;;;;;;;48.50;22.00;;;6.90;99.90;;;;;;5157364;27;20029;-70
2020/12/09 06:50:00;;;;;;;47.47;22.42;;;6.80;99.90;;;;;;5157146;27;20105;-68
2020/12/09 06:52:34;;;;;;;44.67;21.65;;;6.90;99.90;;;;;;5156892;27;20411;-67
2020/12/09 06:55:01;;;;;;;43.75;21.92;;;6.90;99.90;;;;;;5157199;27;20029;-67
2020/12/09 06:57:32;;;;;;;47.20;22.30;;;6.90;99.90;;;;;;5156877;27;20062;-67
2020/12/09 07:00:10;;;;;;;43.75;20.92;;;6.90;99.90;;;;;;5156899;27;20060;-67
2020/12/09 07:02:36;;;;;;;43.15;21.95;;;6.90;99.90;;;;;;5156760;27;20549;-66
2020/12/09 07:05:04;;;;;;;45.88;23.15;;;6.90;99.90;;;;;;5156964;27;20063;-68
2020/12/09 07:07:36;;;;;;;42.90;21.27;;;6.90;99.90;;;;;;5156905;27;20093;-68
2020/12/09 07:10:18;;;;;;;47.35;21.95;;;6.90;99.90;;;;;;5156601;27;20059;-68
2020/12/09 07:12:47;;;;;;;44.80;21.85;;;6.90;99.90;;;;;;5156424;27;20470;-67
2020/12/09 07:15:13;;;;;;;42.15;20.70;;;6.90;99.90;;;;;;5156729;27;20022;-68
2020/12/09 07:17:39;;;;;;;45.85;21.35;;;6.90;99.90;;;;;;5156955;27;20023;-68
2020/12/09 07:20:06;;;;;;;41.47;20.77;;;6.90;99.90;;;;;;5156754;27;20382;-67
2020/12/09 07:22:32;;;;;;;37.47;19.13;;;6.90;99.90;;;;;;5156573;27;20034;-67
2020/12/09 07:24:58;;;;;;;43.75;21.23;;;7.00;99.90;;;;;;5156362;27;20537;-67
2020/12/09 07:27:27;;;;;;;41.45;20.80;;;6.90;99.90;;;;;;5156505;27;20097;-67
2020/12/09 07:29:56;;;;;;;41.90;21.38;;;6.90;99.90;;;;;;5156582;27;20037;-68
2020/12/09 07:32:23;;;;;;;42.58;21.45;;;6.90;99.90;;;;;;5156190;27;20023;-67
2020/12/09 07:34:59;;;;;;;42.13;19.90;;;6.90;99.90;;;;;;5156177;27;20015;-68
2020/12/09 07:37:28;;;;;;;45.90;21.58;;;6.90;99.90;;;;;;5156323;27;20062;-65
2020/12/09 07:39:54;;;;;;;43.88;21.00;;;6.90;99.90;;;;;;5156282;27;20518;-67
2020/12/09 07:42:22;;;;;;;43.88;21.02;;;6.90;99.90;;;;;;5155889;27;20462;-70
2020/12/09 07:44:49;;;;;;;43.22;20.73;;;6.90;99.90;;;;;;5156057;27;20023;-70
2020/12/09 07:47:24;;;;;;;44.38;20.88;;;6.90;99.90;;;;;;5156271;27;20063;-70
2020/12/09 07:50:05;;;;;;;44.55;21.80;;;6.90;99.90;;;;;;5156120;27;20110;-70
2020/12/09 07:59:00;;;;;;;44.20;20.08;;;6.80;99.90;;;;;;5156086;27;20543;-69
2020/12/09 08:01:27;;;;;;;43.83;21.67;;;6.90;99.90;;;;;;5155650;27;20064;-70
2020/12/09 08:03:52;;;;;;;50.60;23.33;;;6.90;99.90;;;;;;5155771;27;20046;-71
2020/12/09 08:06:22;;;;;;;57.15;26.15;;;6.90;99.90;;;;;;5155845;27;20019;-70
2020/12/09 08:08:50;;;;;;;54.45;24.95;;;6.30;99.90;;;;;;5155412;27;20026;-69
2020/12/09 08:11:16;;;;;;;57.90;24.38;;;5.60;99.90;;;;;;5155001;27;20164;-76
2020/12/09 08:13:42;;;;;;;56.17;23.60;;;5.10;99.90;;;;;;5155330;27;20023;-72
2020/12/09 08:16:13;;;;;;;59.63;22.75;;;5.30;99.90;;;;;;5155456;27;20026;-73
2020/12/09 08:18:39;;;;;;;56.42;20.92;;;5.10;99.90;;;;;;5155374;27;20042;-75
2020/12/09 09:02:31;;;;;;;56.55;22.35;;;4.60;99.90;;;;;;5393499;22;20049;-70
2020/12/09 09:04:56;;;;;;;54.55;24.08;;;4.70;99.90;;;;;;5051339;28;20084;-70
2020/12/09 09:12:33;;;;;;;51.45;21.08;;;4.70;99.90;;;;;;6011408;22;20127;-73
2020/12/09 09:14:59;;;;;;;47.15;21.38;;;4.50;99.90;;;;;;5068684;28;20064;-73
2020/12/09 09:17:25;;;;;;;48.95;21.40;;;4.50;99.90;;;;;;5070975;28;20052;-73
2020/12/09 20:13:06;;;;;;;41.50;25.10;;;8.40;99.90;;;;;;5402625;23;20075;-75
2020/12/09 20:15:32;;;;;;;45.13;26.65;;;8.40;99.90;;;;;;4891542;29;20032;-74
2020/12/09 20:17:58;;;;;;;47.53;27.67;;;8.50;99.90;;;;;;4895702;29;20043;-76
2020/12/09 20:20:23;;;;;;;43.33;26.45;;;8.50;99.90;;;;;;4887573;29;20029;-74
2020/12/09 20:25:34;;;;;;;53.63;31.70;;;8.40;99.90;;;;;;4892710;29;20484;-75
2020/12/09 20:28:00;;;;;;;52.05;29.48;;;8.40;99.90;;;;;;4896154;29;20024;-75
2020/12/09 20:30:25;;;;;;;50.25;29.98;;;8.40;99.90;;;;;;4896817;29;20482;-75
2020/12/09 20:32:51;;;;;;;45.88;27.30;;;8.40;99.90;;;;;;4897480;29;20092;-75
2020/12/09 20:35:17;;;;;;;41.33;24.50;;;8.50;99.90;;;;;;4897155;29;20033;-75
2020/12/09 20:37:44;;;;;;;49.65;28.20;;;8.50;99.90;;;;;;4896952;29;20036;-73
2020/12/09 20:40:14;;;;;;;53.42;29.58;;;8.50;99.90;;;;;;4896616;29;20068;-74
2020/12/09 20:42:40;;;;;;;41.35;25.75;;;8.50;99.90;;;;;;4897105;29;20392;-75
2020/12/09 20:45:09;;;;;;;48.30;27.42;;;8.50;99.90;;;;;;4896113;29;20040;-74
2020/12/09 20:47:36;;;;;;;46.83;28.48;;;8.50;99.90;;;;;;4896417;29;20032;-76
2020/12/09 20:50:03;;;;;;;49.58;28.65;;;8.50;99.90;;;;;;4896729;29;20041;-75
2020/12/09 20:52:37;;;;;;;53.50;31.02;;;8.50;99.90;;;;;;4895130;29;20029;-76
2020/12/09 20:55:07;;;;;;;;;;;8.40;99.90;;;;;;4897078;29;20421;-70
2020/12/09 20:57:35;;;;;;;50.03;27.63;;;8.40;99.90;;;;;;4896377;29;19952;-69
2020/12/09 21:00:00;;;;;;;41.10;24.50;;;8.50;99.90;;;;;;4882985;29;20033;-73
2020/12/09 21:02:26;;;;;;;53.25;30.08;;;8.50;99.90;;;;;;4891009;29;20454;-70
2020/12/09 21:04:52;;;;;;;52.15;30.35;;;8.40;99.90;;;;;;4878049;29;20037;-70
2020/12/09 21:07:17;;;;;;;50.15;27.58;;;8.40;99.90;;;;;;4877950;29;20033;-71
2020/12/09 21:09:43;;;;;;;50.47;28.70;;;8.50;99.90;;;;;;4883298;29;20068;-70
2020/12/09 21:12:09;;;;;;;48.15;28.60;;;8.40;99.90;;;;;;4895616;29;20683;-70
2020/12/09 21:14:37;;;;;;;50.15;29.33;;;8.40;99.90;;;;;;4895051;29;20092;-70
2020/12/09 21:17:03;;;;;;;51.08;29.42;;;8.40;99.90;;;;;;4893700;29;20021;-71
2020/12/09 21:19:29;;;;;;;50.42;29.52;;;8.40;99.90;;;;;;4881483;29;20033;-71
2020/12/09 21:21:56;;;;;;;54.70;31.58;;;8.40;99.90;;;;;;4898939;29;20039;-68
2020/12/09 21:24:21;;;;;;;47.70;28.70;;;8.40;99.90;;;;;;4896494;29;20129;-72
2020/12/09 21:26:47;;;;;;;50.30;29.33;;;8.30;99.90;;;;;;4895526;29;20120;-71
2020/12/09 21:29:13;;;;;;;44.78;28.70;;;8.30;99.90;;;;;;4896115;29;20028;-68
2020/12/09 21:31:38;;;;;;;48.03;28.52;;;8.40;99.90;;;;;;4896228;29;20123;-69
2020/12/09 21:34:04;;;;;;;42.97;26.35;;;8.30;99.90;;;;;;4879086;29;20124;-70
2020/12/09 21:36:30;;;;;;;45.35;27.90;;;8.40;99.90;;;;;;4896172;29;20031;-69
2020/12/09 21:38:57;;;;;;;48.67;27.25;;;8.30;99.90;;;;;;4887456;29;20033;-72
2020/12/09 21:41:27;;;;;;;47.88;28.40;;;8.40;99.90;;;;;;4884860;29;20165;-70
2020/12/09 21:43:53;;;;;;;46.38;27.02;;;8.30;99.90;;;;;;4885146;29;20084;-71
2020/12/09 21:46:20;;;;;;;40.15;25.05;;;8.30;99.90;;;;;;4887265;29;20064;-71
2020/12/09 21:48:46;;;;;;;44.20;27.88;;;8.30;99.90;;;;;;4889259;29;20318;-71
2020/12/09 21:51:17;;;;;;;50.58;28.30;;;8.30;99.90;;;;;;4886898;29;20119;-72
2020/12/09 21:53:42;;;;;;;45.90;27.25;;;8.30;99.90;;;;;;4887358;29;20036;-70
2020/12/09 21:56:09;;;;;;;42.65;26.52;;;8.30;99.90;;;;;;4886235;29;20037;-69
2020/12/09 21:58:36;;;;;;;51.70;28.08;;;8.20;99.90;;;;;;4887624;29;20033;-69
2020/12/09 22:01:03;;;;;;;48.58;28.33;;;8.20;99.90;;;;;;4890483;29;20029;-70
2020/12/09 22:03:29;;;;;;;47.45;28.33;;;8.20;99.90;;;;;;4887166;29;20630;-72
2020/12/09 22:05:55;;;;;;;47.13;28.50;;;8.20;99.90;;;;;;4884646;29;20025;-71
2020/12/09 22:08:21;;;;;;;46.97;28.25;;;8.20;99.90;;;;;;4884191;29;20060;-70
2020/12/09 22:10:47;;;;;;;45.03;27.80;;;8.20;99.90;;;;;;4886438;29;20025;-71
2020/12/09 22:13:12;;;;;;;46.20;27.13;;;8.20;99.90;;;;;;4889988;29;20113;-73
2020/12/09 22:15:39;;;;;;;40.85;25.00;;;8.10;99.90;;;;;;4889970;29;20028;-72
2020/12/09 22:18:04;;;;;;;46.85;27.38;;;8.10;99.90;;;;;;4898582;29;20036;-71
2020/12/09 22:20:30;;;;;;;42.88;25.95;;;8.10;99.90;;;;;;4918203;29;20465;-73
2020/12/09 22:22:56;;;;;;;46.08;27.85;;;8.10;99.90;;;;;;4918261;29;20036;-72
2020/12/09 22:25:22;;;;;;;50.28;27.90;;;8.10;99.90;;;;;;4917797;29;20044;-70
2020/12/09 22:27:47;;;;;;;51.90;29.15;;;8.10;99.90;;;;;;4915431;29;20162;-70
2020/12/09 22:30:13;;;;;;;49.00;28.65;;;8.10;99.90;;;;;;4918230;29;20075;-71
2020/12/09 22:32:44;;;;;;;49.13;28.80;;;8.10;99.90;;;;;;4901722;29;20093;-65
2020/12/09 22:35:09;;;;;;;46.47;28.13;;;8.10;99.90;;;;;;4880910;29;20052;-69
2020/12/09 22:37:41;;;;;;;45.83;27.67;;;8.10;99.90;;;;;;4897443;29;20354;-70
2020/12/09 22:40:07;;;;;;;50.95;29.95;;;8.00;99.90;;;;;;4899059;29;20104;-69
2020/12/09 22:42:33;;;;;;;53.88;29.70;;;8.00;99.90;;;;;;4890078;29;20025;-64
2020/12/09 22:44:59;;;;;;;48.63;29.08;;;8.00;99.90;;;;;;4890976;29;20040;-69
2020/12/09 22:47:24;;;;;;;45.88;26.50;;;8.00;99.90;;;;;;4890451;29;20474;-70
2020/12/09 22:49:50;;;;;;;42.78;25.60;;;8.10;99.90;;;;;;4915238;29;20036;-68
2020/12/09 22:52:15;;;;;;;43.47;25.67;;;8.10;99.90;;;;;;4918109;29;20048;-67
2020/12/09 22:54:41;;;;;;;42.22;25.60;;;8.10;99.90;;;;;;4902597;29;20051;-66
2020/12/09 22:57:07;;;;;;;39.78;24.33;;;8.10;99.90;;;;;;4882177;29;20401;-64
2020/12/09 22:59:32;;;;;;;40.85;23.08;;;8.10;99.90;;;;;;4899177;29;20124;-66
2020/12/09 23:01:58;;;;;;;41.22;24.60;;;8.20;99.90;;;;;;4899088;29;20028;-66
2020/12/09 23:04:24;;;;;;;49.67;27.00;;;8.20;99.90;;;;;;4894471;29;20388;-66
2020/12/09 23:06:54;;;;;;;38.38;22.10;;;8.20;99.90;;;;;;4917502;29;20624;-65
2020/12/09 23:09:21;;;;;;;44.83;25.45;;;8.30;99.90;;;;;;4895728;29;20032;-66
2020/12/09 23:11:50;;;;;;;47.20;27.52;;;8.20;99.90;;;;;;4892412;29;20367;-67
2020/12/09 23:14:15;;;;;;;48.13;26.88;;;8.20;99.90;;;;;;4886149;29;20505;-66
2020/12/09 23:16:41;;;;;;;48.88;27.83;;;8.10;99.90;;;;;;4891414;29;20045;-66
2020/12/09 23:19:07;;;;;;;47.95;26.92;;;8.10;99.90;;;;;;4898503;29;20028;-67
2020/12/09 23:21:32;;;;;;;46.63;25.38;;;8.10;99.90;;;;;;4898202;29;20512;-65
2020/12/09 23:23:58;;;;;;;45.88;26.65;;;8.10;99.90;;;;;;4893196;29;20044;-66
2020/12/09 23:26:24;;;;;;;48.85;26.75;;;8.10;99.90;;;;;;4887083;29;20031;-65
2020/12/09 23:28:50;;;;;;;44.70;25.00;;;8.10;99.90;;;;;;4889954;29;20048;-68
2020/12/09 23:31:17;;;;;;;40.17;23.33;;;8.10;99.90;;;;;;4887600;29;20027;-66
2020/12/09 23:33:42;;;;;;;38.70;22.90;;;8.10;99.90;;;;;;4888194;29;20067;-68
2020/12/09 23:36:08;;;;;;;42.80;24.63;;;8.10;99.90;;;;;;4892705;29;20061;-68
2020/12/09 23:38:34;;;;;;;39.67;23.55;;;8.10;99.90;;;;;;4886831;29;20438;-67
2020/12/09 23:40:59;;;;;;;44.40;25.65;;;8.10;99.90;;;;;;4889033;29;20025;-67
2020/12/09 23:43:25;;;;;;;37.40;23.02;;;8.10;99.90;;;;;;4891058;29;20036;-66
2020/12/09 23:45:51;;;;;;;39.17;24.05;;;8.10;99.90;;;;;;4888763;29;20032;-68
2020/12/09 23:48:17;;;;;;;40.10;23.95;;;8.10;99.90;;;;;;4886518;29;20021;-69
2020/12/09 23:50:45;;;;;;;34.63;20.23;;;8.10;99.90;;;;;;4887637;29;20024;-67
2020/12/09 23:53:10;;;;;;;34.72;20.83;;;8.20;99.90;;;;;;4891504;29;20455;-71
2020/12/09 23:55:36;;;;;;;36.72;22.58;;;8.20;99.90;;;;;;4887997;29;20028;-69
2020/12/09 23:58:03;;;;;;;36.95;22.40;;;8.20;99.90;;;;;;4887581;29;20504;-68
